Glendale, California
Current Conditions -  °F | °C
As of 10:53 AM on Saturday 25 Oct 2014 (Local Time) from KBUR Reporting Station
Clear Clear  
Wind Chill: 76°   Ceiling: Unl
Heat Index: 76°   Visibility: 10mi
Dew Point: 43°   Wind: 6mph
Humidity: 31%   Direction: 150°SSE
Pressure: 30.06"   Gusts: NA
Location:  34.15°N, 118.24°W
Report Text: KBUR 251753Z 15005KT 10SM CLR 24/06 A3006 RMK AO2 SLP166 T02440061 10244 20150 51009
Loading
Personal Weather Stations






























Interactive Weather Map
Tropical Storm Tracking
New forecast layout! Learn more

10-Day Weather Forecast

Advertisements
Track Severe Weather on mobile